sensor_id;sensor_type;location;lat;lon;timestamp;P1;durP1;ratioP1;P2;durP2;ratioP2
59161;SDS011;44942;48.936;8.260;2023-11-21T00:04:50;2.08;;;1.42;;
59161;SDS011;44942;48.936;8.260;2023-11-21T00:09:52;2.45;;;1.20;;
59161;SDS011;44942;48.936;8.260;2023-11-21T00:14:55;2.78;;;1.33;;
59161;SDS011;44942;48.936;8.260;2023-11-21T00:19:56;2.30;;;1.00;;
59161;SDS011;44942;48.936;8.260;2023-11-21T00:24:56;1.97;;;1.30;;
59161;SDS011;44942;48.936;8.260;2023-11-21T00:29:57;3.03;;;1.07;;
59161;SDS011;44942;48.936;8.260;2023-11-21T00:34:58;1.97;;;1.17;;
59161;SDS011;44942;48.936;8.260;2023-11-21T00:39:59;2.30;;;1.10;;
59161;SDS011;44942;48.936;8.260;2023-11-21T00:45:00;1.30;;;0.90;;
59161;SDS011;44942;48.936;8.260;2023-11-21T00:50:00;2.57;;;1.23;;
59161;SDS011;44942;48.936;8.260;2023-11-21T00:55:01;1.10;;;0.97;;
59161;SDS011;44942;48.936;8.260;2023-11-21T01:00:03;2.13;;;1.00;;
59161;SDS011;44942;48.936;8.260;2023-11-21T01:05:14;1.70;;;0.90;;
59161;SDS011;44942;48.936;8.260;2023-11-21T01:10:15;1.92;;;0.98;;
59161;SDS011;44942;48.936;8.260;2023-11-21T01:15:17;2.53;;;1.38;;
59161;SDS011;44942;48.936;8.260;2023-11-21T01:20:18;2.77;;;0.80;;
59161;SDS011;44942;48.936;8.260;2023-11-21T01:25:18;1.88;;;1.00;;
59161;SDS011;44942;48.936;8.260;2023-11-21T01:30:19;1.47;;;0.90;;
59161;SDS011;44942;48.936;8.260;2023-11-21T01:35:19;2.97;;;1.20;;
59161;SDS011;44942;48.936;8.260;2023-11-21T01:40:20;1.27;;;0.70;;
59161;SDS011;44942;48.936;8.260;2023-11-21T01:45:21;1.67;;;1.00;;
59161;SDS011;44942;48.936;8.260;2023-11-21T01:50:21;2.57;;;1.30;;
59161;SDS011;44942;48.936;8.260;2023-11-21T01:55:22;1.92;;;1.00;;
59161;SDS011;44942;48.936;8.260;2023-11-21T02:00:23;1.75;;;1.10;;
59161;SDS011;44942;48.936;8.260;2023-11-21T02:05:24;1.67;;;1.10;;
59161;SDS011;44942;48.936;8.260;2023-11-21T02:15:26;1.77;;;0.83;;
59161;SDS011;44942;48.936;8.260;2023-11-21T02:20:28;1.05;;;0.70;;
59161;SDS011;44942;48.936;8.260;2023-11-21T02:25:31;1.42;;;0.80;;
59161;SDS011;44942;48.936;8.260;2023-11-21T02:30:33;1.38;;;0.90;;
59161;SDS011;44942;48.936;8.260;2023-11-21T02:35:33;2.80;;;0.90;;
59161;SDS011;44942;48.936;8.260;2023-11-21T02:40:34;1.17;;;0.85;;
59161;SDS011;44942;48.936;8.260;2023-11-21T02:45:35;1.37;;;0.80;;
59161;SDS011;44942;48.936;8.260;2023-11-21T02:50:36;1.92;;;0.90;;
59161;SDS011;44942;48.936;8.260;2023-11-21T02:55:37;1.50;;;0.77;;
59161;SDS011;44942;48.936;8.260;2023-11-21T03:00:38;1.20;;;0.73;;
59161;SDS011;44942;48.936;8.260;2023-11-21T03:05:41;1.05;;;0.70;;
59161;SDS011;44942;48.936;8.260;2023-11-21T03:10:42;1.60;;;0.82;;
59161;SDS011;44942;48.936;8.260;2023-11-21T03:15:43;1.53;;;0.60;;
59161;SDS011;44942;48.936;8.260;2023-11-21T03:20:43;1.13;;;0.80;;
59161;SDS011;44942;48.936;8.260;2023-11-21T03:25:47;1.77;;;0.77;;
59161;SDS011;44942;48.936;8.260;2023-11-21T03:30:47;1.07;;;0.70;;
59161;SDS011;44942;48.936;8.260;2023-11-21T03:35:48;1.80;;;0.80;;
59161;SDS011;44942;48.936;8.260;2023-11-21T03:40:49;0.90;;;0.63;;
59161;SDS011;44942;48.936;8.260;2023-11-21T03:50:51;2.10;;;0.70;;
59161;SDS011;44942;48.936;8.260;2023-11-21T03:55:51;1.63;;;0.77;;
59161;SDS011;44942;48.936;8.260;2023-11-21T04:00:52;2.30;;;0.80;;
59161;SDS011;44942;48.936;8.260;2023-11-21T04:05:52;1.43;;;0.90;;
59161;SDS011;44942;48.936;8.260;2023-11-21T04:10:53;0.97;;;0.53;;
59161;SDS011;44942;48.936;8.260;2023-11-21T04:15:53;1.67;;;1.00;;
59161;SDS011;44942;48.936;8.260;2023-11-21T04:20:54;1.23;;;0.80;;
59161;SDS011;44942;48.936;8.260;2023-11-21T04:25:54;2.20;;;0.70;;
59161;SDS011;44942;48.936;8.260;2023-11-21T04:30:57;1.58;;;0.90;;
59161;SDS011;44942;48.936;8.260;2023-11-21T04:35:57;1.30;;;0.63;;
59161;SDS011;44942;48.936;8.260;2023-11-21T04:40:58;0.50;;;0.43;;
59161;SDS011;44942;48.936;8.260;2023-11-21T04:45:58;0.83;;;0.70;;
59161;SDS011;44942;48.936;8.260;2023-11-21T04:56:00;1.40;;;0.67;;
59161;SDS011;44942;48.936;8.260;2023-11-21T05:01:01;1.07;;;0.50;;
59161;SDS011;44942;48.936;8.260;2023-11-21T05:06:01;1.10;;;0.60;;
59161;SDS011;44942;48.936;8.260;2023-11-21T05:11:02;1.40;;;0.57;;
59161;SDS011;44942;48.936;8.260;2023-11-21T05:16:03;1.30;;;0.77;;
59161;SDS011;44942;48.936;8.260;2023-11-21T05:21:07;0.80;;;0.50;;
59161;SDS011;44942;48.936;8.260;2023-11-21T05:26:07;0.80;;;0.50;;
59161;SDS011;44942;48.936;8.260;2023-11-21T05:31:08;0.80;;;0.50;;
59161;SDS011;44942;48.936;8.260;2023-11-21T05:36:09;1.03;;;0.60;;
59161;SDS011;44942;48.936;8.260;2023-11-21T05:41:10;0.50;;;0.47;;
59161;SDS011;44942;48.936;8.260;2023-11-21T05:46:13;1.05;;;0.50;;
59161;SDS011;44942;48.936;8.260;2023-11-21T05:51:13;2.20;;;0.67;;
59161;SDS011;44942;48.936;8.260;2023-11-21T05:56:14;1.20;;;0.80;;
59161;SDS011;44942;48.936;8.260;2023-11-21T06:01:14;2.70;;;0.60;;
59161;SDS011;44942;48.936;8.260;2023-11-21T06:06:15;3.80;;;0.70;;
59161;SDS011;44942;48.936;8.260;2023-11-21T06:11:16;1.43;;;0.63;;
59161;SDS011;44942;48.936;8.260;2023-11-21T06:16:16;4.07;;;0.70;;
59161;SDS011;44942;48.936;8.260;2023-11-21T06:21:19;0.73;;;0.47;;
59161;SDS011;44942;48.936;8.260;2023-11-21T06:26:19;1.50;;;0.57;;
59161;SDS011;44942;48.936;8.260;2023-11-21T06:31:20;4.40;;;1.93;;
59161;SDS011;44942;48.936;8.260;2023-11-21T06:36:21;4.47;;;1.90;;
59161;SDS011;44942;48.936;8.260;2023-11-21T06:41:22;5.40;;;2.13;;
59161;SDS011;44942;48.936;8.260;2023-11-21T06:46:23;5.53;;;2.17;;
59161;SDS011;44942;48.936;8.260;2023-11-21T06:51:24;1.90;;;1.00;;
59161;SDS011;44942;48.936;8.260;2023-11-21T06:56:24;2.97;;;1.40;;
59161;SDS011;44942;48.936;8.260;2023-11-21T07:01:25;1.40;;;0.75;;
59161;SDS011;44942;48.936;8.260;2023-11-21T07:06:26;5.00;;;1.07;;
59161;SDS011;44942;48.936;8.260;2023-11-21T07:11:27;5.77;;;1.23;;
59161;SDS011;44942;48.936;8.260;2023-11-21T07:16:27;2.72;;;0.75;;
59161;SDS011;44942;48.936;8.260;2023-11-21T07:21:30;1.70;;;0.80;;
59161;SDS011;44942;48.936;8.260;2023-11-21T07:26:30;4.10;;;0.90;;
59161;SDS011;44942;48.936;8.260;2023-11-21T07:31:31;4.77;;;1.13;;
59161;SDS011;44942;48.936;8.260;2023-11-21T07:36:34;1.65;;;0.75;;
59161;SDS011;44942;48.936;8.260;2023-11-21T07:41:36;2.85;;;1.00;;
59161;SDS011;44942;48.936;8.260;2023-11-21T07:46:38;4.18;;;1.23;;
59161;SDS011;44942;48.936;8.260;2023-11-21T07:51:38;4.43;;;1.00;;
59161;SDS011;44942;48.936;8.260;2023-11-21T07:56:39;3.37;;;0.87;;
59161;SDS011;44942;48.936;8.260;2023-11-21T08:01:39;3.40;;;0.90;;
59161;SDS011;44942;48.936;8.260;2023-11-21T08:06:40;1.50;;;0.70;;
59161;SDS011;44942;48.936;8.260;2023-11-21T08:11:41;1.55;;;0.70;;
59161;SDS011;44942;48.936;8.260;2023-11-21T08:16:42;3.30;;;0.80;;
59161;SDS011;44942;48.936;8.260;2023-11-21T08:21:42;2.43;;;0.73;;
59161;SDS011;44942;48.936;8.260;2023-11-21T08:26:43;3.00;;;0.80;;
59161;SDS011;44942;48.936;8.260;2023-11-21T08:31:43;1.47;;;0.70;;
59161;SDS011;44942;48.936;8.260;2023-11-21T08:36:46;1.27;;;0.73;;
59161;SDS011;44942;48.936;8.260;2023-11-21T08:41:47;1.73;;;0.80;;
59161;SDS011;44942;48.936;8.260;2023-11-21T08:46:48;1.67;;;0.73;;
59161;SDS011;44942;48.936;8.260;2023-11-21T08:56:50;1.87;;;0.70;;
59161;SDS011;44942;48.936;8.260;2023-11-21T09:01:50;1.47;;;0.70;;
59161;SDS011;44942;48.936;8.260;2023-11-21T09:06:51;0.80;;;0.60;;
59161;SDS011;44942;48.936;8.260;2023-11-21T09:11:51;1.13;;;0.70;;
59161;SDS011;44942;48.936;8.260;2023-11-21T09:16:52;0.60;;;0.60;;
59161;SDS011;44942;48.936;8.260;2023-11-21T09:21:52;1.30;;;0.60;;
59161;SDS011;44942;48.936;8.260;2023-11-21T09:31:54;0.90;;;0.60;;
59161;SDS011;44942;48.936;8.260;2023-11-21T09:36:57;1.20;;;0.68;;
59161;SDS011;44942;48.936;8.260;2023-11-21T09:41:59;1.13;;;0.68;;
59161;SDS011;44942;48.936;8.260;2023-11-21T09:47:07;1.05;;;0.60;;
59161;SDS011;44942;48.936;8.260;2023-11-21T09:52:10;1.50;;;0.75;;
59161;SDS011;44942;48.936;8.260;2023-11-21T09:57:18;0.95;;;0.60;;
59161;SDS011;44942;48.936;8.260;2023-11-21T10:02:20;0.93;;;0.60;;
59161;SDS011;44942;48.936;8.260;2023-11-21T10:07:26;0.73;;;0.52;;
59161;SDS011;44942;48.936;8.260;2023-11-21T10:12:28;1.65;;;0.50;;
59161;SDS011;44942;48.936;8.260;2023-11-21T10:17:31;1.50;;;0.68;;
59161;SDS011;44942;48.936;8.260;2023-11-21T10:22:41;0.88;;;0.57;;
59161;SDS011;44942;48.936;8.260;2023-11-21T10:27:43;0.55;;;0.50;;
59161;SDS011;44942;48.936;8.260;2023-11-21T10:32:48;1.08;;;0.60;;
59161;SDS011;44942;48.936;8.260;2023-11-21T10:37:48;0.97;;;0.60;;
59161;SDS011;44942;48.936;8.260;2023-11-21T10:43:07;0.95;;;0.60;;
59161;SDS011;44942;48.936;8.260;2023-11-21T10:48:13;1.75;;;0.60;;
59161;SDS011;44942;48.936;8.260;2023-11-21T10:53:17;0.70;;;0.65;;
59161;SDS011;44942;48.936;8.260;2023-11-21T11:03:19;0.60;;;0.50;;
59161;SDS011;44942;48.936;8.260;2023-11-21T11:08:23;1.83;;;0.60;;
59161;SDS011;44942;48.936;8.260;2023-11-21T11:13:26;1.35;;;0.70;;
59161;SDS011;44942;48.936;8.260;2023-11-21T11:18:30;0.40;;;0.40;;
59161;SDS011;44942;48.936;8.260;2023-11-21T11:28:59;0.98;;;0.40;;
59161;SDS011;44942;48.936;8.260;2023-11-21T11:34:26;0.93;;;0.50;;
59161;SDS011;44942;48.936;8.260;2023-11-21T11:39:40;0.98;;;0.40;;
59161;SDS011;44942;48.936;8.260;2023-11-21T11:54:56;0.52;;;0.40;;
59161;SDS011;44942;48.936;8.260;2023-11-21T12:05:21;0.63;;;0.52;;
59161;SDS011;44942;48.936;8.260;2023-11-21T12:15:28;0.50;;;0.50;;
59161;SDS011;44942;48.936;8.260;2023-11-21T12:20:31;0.70;;;0.50;;
59161;SDS011;44942;48.936;8.260;2023-11-21T12:25:32;0.60;;;0.50;;
59161;SDS011;44942;48.936;8.260;2023-11-21T12:30:34;0.88;;;0.60;;
59161;SDS011;44942;48.936;8.260;2023-11-21T12:35:35;0.50;;;0.47;;
59161;SDS011;44942;48.936;8.260;2023-11-21T12:40:36;0.90;;;0.60;;
59161;SDS011;44942;48.936;8.260;2023-11-21T12:45:37;1.25;;;0.82;;
59161;SDS011;44942;48.936;8.260;2023-11-21T12:50:38;0.70;;;0.60;;
59161;SDS011;44942;48.936;8.260;2023-11-21T12:55:39;0.93;;;0.60;;
59161;SDS011;44942;48.936;8.260;2023-11-21T13:00:45;1.00;;;0.65;;
59161;SDS011;44942;48.936;8.260;2023-11-21T13:05:47;0.77;;;0.55;;
59161;SDS011;44942;48.936;8.260;2023-11-21T13:10:52;1.08;;;0.70;;
59161;SDS011;44942;48.936;8.260;2023-11-21T13:15:56;0.98;;;0.63;;
59161;SDS011;44942;48.936;8.260;2023-11-21T13:21:04;0.88;;;0.60;;
59161;SDS011;44942;48.936;8.260;2023-11-21T13:26:13;1.42;;;0.80;;
59161;SDS011;44942;48.936;8.260;2023-11-21T13:31:15;1.20;;;0.70;;
59161;SDS011;44942;48.936;8.260;2023-11-21T13:36:25;1.67;;;0.90;;
59161;SDS011;44942;48.936;8.260;2023-11-21T13:41:30;1.38;;;0.90;;
59161;SDS011;44942;48.936;8.260;2023-11-21T13:46:30;1.80;;;0.80;;
59161;SDS011;44942;48.936;8.260;2023-11-21T13:51:36;0.70;;;0.60;;
59161;SDS011;44942;48.936;8.260;2023-11-21T13:56:46;1.08;;;0.75;;
59161;SDS011;44942;48.936;8.260;2023-11-21T14:01:46;1.08;;;0.70;;
59161;SDS011;44942;48.936;8.260;2023-11-21T14:06:53;1.45;;;0.88;;
59161;SDS011;44942;48.936;8.260;2023-11-21T14:11:55;1.77;;;0.90;;
59161;SDS011;44942;48.936;8.260;2023-11-21T14:16:57;1.35;;;0.77;;
59161;SDS011;44942;48.936;8.260;2023-11-21T14:21:59;1.17;;;0.82;;
59161;SDS011;44942;48.936;8.260;2023-11-21T14:26:59;1.45;;;0.98;;
59161;SDS011;44942;48.936;8.260;2023-11-21T14:32:00;1.07;;;0.80;;
59161;SDS011;44942;48.936;8.260;2023-11-21T14:37:01;1.10;;;0.80;;
59161;SDS011;44942;48.936;8.260;2023-11-21T14:42:05;0.80;;;0.70;;
59161;SDS011;44942;48.936;8.260;2023-11-21T14:47:08;1.20;;;0.90;;
59161;SDS011;44942;48.936;8.260;2023-11-21T14:52:14;1.20;;;0.70;;
59161;SDS011;44942;48.936;8.260;2023-11-21T14:57:34;2.25;;;0.80;;
59161;SDS011;44942;48.936;8.260;2023-11-21T15:02:35;1.33;;;0.80;;
59161;SDS011;44942;48.936;8.260;2023-11-21T15:07:51;1.35;;;0.70;;
59161;SDS011;44942;48.936;8.260;2023-11-21T15:12:55;1.05;;;0.65;;
59161;SDS011;44942;48.936;8.260;2023-11-21T15:17:57;1.20;;;0.90;;
59161;SDS011;44942;48.936;8.260;2023-11-21T15:22:58;1.47;;;0.80;;
59161;SDS011;44942;48.936;8.260;2023-11-21T15:28:00;1.13;;;0.80;;
59161;SDS011;44942;48.936;8.260;2023-11-21T15:33:01;1.17;;;0.77;;
59161;SDS011;44942;48.936;8.260;2023-11-21T15:38:03;1.38;;;0.70;;
59161;SDS011;44942;48.936;8.260;2023-11-21T15:43:04;0.77;;;0.60;;
59161;SDS011;44942;48.936;8.260;2023-11-21T15:48:06;1.63;;;0.90;;
59161;SDS011;44942;48.936;8.260;2023-11-21T15:53:09;0.70;;;0.57;;
59161;SDS011;44942;48.936;8.260;2023-11-21T15:58:10;3.33;;;2.30;;
59161;SDS011;44942;48.936;8.260;2023-11-21T16:03:10;13.80;;;7.77;;
59161;SDS011;44942;48.936;8.260;2023-11-21T16:08:12;20.50;;;10.02;;
59161;SDS011;44942;48.936;8.260;2023-11-21T16:13:13;20.05;;;11.70;;
59161;SDS011;44942;48.936;8.260;2023-11-21T16:18:13;24.23;;;12.37;;
59161;SDS011;44942;48.936;8.260;2023-11-21T16:23:14;21.03;;;13.10;;
59161;SDS011;44942;48.936;8.260;2023-11-21T16:28:16;23.67;;;13.38;;
59161;SDS011;44942;48.936;8.260;2023-11-21T16:33:16;23.70;;;13.57;;
59161;SDS011;44942;48.936;8.260;2023-11-21T16:38:17;21.38;;;12.57;;
59161;SDS011;44942;48.936;8.260;2023-11-21T16:43:18;24.00;;;12.60;;
59161;SDS011;44942;48.936;8.260;2023-11-21T16:48:19;29.77;;;15.60;;
59161;SDS011;44942;48.936;8.260;2023-11-21T16:53:19;32.63;;;18.87;;
59161;SDS011;44942;48.936;8.260;2023-11-21T16:58:20;35.50;;;19.20;;
59161;SDS011;44942;48.936;8.260;2023-11-21T17:03:20;28.90;;;18.30;;
59161;SDS011;44942;48.936;8.260;2023-11-21T17:08:21;32.30;;;19.20;;
59161;SDS011;44942;48.936;8.260;2023-11-21T17:13:21;30.00;;;16.63;;
59161;SDS011;44942;48.936;8.260;2023-11-21T17:18:22;28.53;;;16.60;;
59161;SDS011;44942;48.936;8.260;2023-11-21T17:28:24;26.13;;;15.77;;
59161;SDS011;44942;48.936;8.260;2023-11-21T17:33:24;23.90;;;15.17;;
59161;SDS011;44942;48.936;8.260;2023-11-21T17:38:25;28.30;;;15.00;;
59161;SDS011;44942;48.936;8.260;2023-11-21T17:43:26;23.37;;;12.90;;
59161;SDS011;44942;48.936;8.260;2023-11-21T17:48:26;23.17;;;13.23;;
59161;SDS011;44942;48.936;8.260;2023-11-21T17:53:29;21.05;;;12.65;;
59161;SDS011;44942;48.936;8.260;2023-11-21T17:58:33;22.75;;;12.23;;
59161;SDS011;44942;48.936;8.260;2023-11-21T18:03:34;20.20;;;11.87;;
59161;SDS011;44942;48.936;8.260;2023-11-21T18:08:35;20.52;;;11.55;;
59161;SDS011;44942;48.936;8.260;2023-11-21T18:13:37;18.17;;;10.65;;
59161;SDS011;44942;48.936;8.260;2023-11-21T18:18:38;20.60;;;10.20;;
59161;SDS011;44942;48.936;8.260;2023-11-21T18:23:39;16.92;;;9.75;;
59161;SDS011;44942;48.936;8.260;2023-11-21T18:28:39;15.20;;;9.20;;
59161;SDS011;44942;48.936;8.260;2023-11-21T18:33:41;16.48;;;8.77;;
59161;SDS011;44942;48.936;8.260;2023-11-21T18:38:41;13.55;;;8.48;;
59161;SDS011;44942;48.936;8.260;2023-11-21T18:43:42;12.47;;;7.53;;
59161;SDS011;44942;48.936;8.260;2023-11-21T18:48:43;11.98;;;8.20;;
59161;SDS011;44942;48.936;8.260;2023-11-21T18:53:47;14.45;;;8.35;;
59161;SDS011;44942;48.936;8.260;2023-11-21T18:58:48;14.13;;;8.27;;
59161;SDS011;44942;48.936;8.260;2023-11-21T19:03:48;13.50;;;7.47;;
59161;SDS011;44942;48.936;8.260;2023-11-21T19:08:49;14.93;;;7.50;;
59161;SDS011;44942;48.936;8.260;2023-11-21T19:13:49;10.13;;;6.53;;
59161;SDS011;44942;48.936;8.260;2023-11-21T19:18:50;11.68;;;7.13;;
59161;SDS011;44942;48.936;8.260;2023-11-21T19:23:51;10.17;;;6.70;;
59161;SDS011;44942;48.936;8.260;2023-11-21T19:28:52;10.98;;;6.45;;
59161;SDS011;44942;48.936;8.260;2023-11-21T19:33:52;8.93;;;5.90;;
59161;SDS011;44942;48.936;8.260;2023-11-21T19:38:53;8.73;;;5.40;;
59161;SDS011;44942;48.936;8.260;2023-11-21T19:43:53;7.70;;;5.13;;
59161;SDS011;44942;48.936;8.260;2023-11-21T19:48:56;8.02;;;5.43;;
59161;SDS011;44942;48.936;8.260;2023-11-21T19:53:57;9.07;;;5.13;;
59161;SDS011;44942;48.936;8.260;2023-11-21T19:58:58;8.80;;;4.45;;
59161;SDS011;44942;48.936;8.260;2023-11-21T20:03:58;8.00;;;4.53;;
59161;SDS011;44942;48.936;8.260;2023-11-21T20:08:59;7.47;;;4.10;;
59161;SDS011;44942;48.936;8.260;2023-11-21T20:14:03;7.90;;;4.22;;
59161;SDS011;44942;48.936;8.260;2023-11-21T20:19:04;7.20;;;4.63;;
59161;SDS011;44942;48.936;8.260;2023-11-21T20:24:07;6.05;;;4.15;;
59161;SDS011;44942;48.936;8.260;2023-11-21T20:29:11;5.20;;;3.92;;
59161;SDS011;44942;48.936;8.260;2023-11-21T20:34:12;6.97;;;4.27;;
59161;SDS011;44942;48.936;8.260;2023-11-21T20:39:12;6.40;;;3.57;;
59161;SDS011;44942;48.936;8.260;2023-11-21T20:44:15;5.95;;;3.90;;
59161;SDS011;44942;48.936;8.260;2023-11-21T20:49:16;6.63;;;4.53;;
59161;SDS011;44942;48.936;8.260;2023-11-21T20:54:18;5.00;;;4.18;;
59161;SDS011;44942;48.936;8.260;2023-11-21T20:59:18;6.15;;;3.75;;
59161;SDS011;44942;48.936;8.260;2023-11-21T21:04:19;4.88;;;3.92;;
59161;SDS011;44942;48.936;8.260;2023-11-21T21:09:21;6.05;;;3.65;;
59161;SDS011;44942;48.936;8.260;2023-11-21T21:14:21;5.15;;;3.60;;
59161;SDS011;44942;48.936;8.260;2023-11-21T21:19:26;4.57;;;3.33;;
59161;SDS011;44942;48.936;8.260;2023-11-21T21:24:27;5.20;;;3.50;;
59161;SDS011;44942;48.936;8.260;2023-11-21T21:29:28;5.03;;;3.67;;
59161;SDS011;44942;48.936;8.260;2023-11-21T21:34:29;5.47;;;4.00;;
59161;SDS011;44942;48.936;8.260;2023-11-21T21:39:29;4.73;;;3.73;;
59161;SDS011;44942;48.936;8.260;2023-11-21T21:44:30;4.73;;;3.47;;
59161;SDS011;44942;48.936;8.260;2023-11-21T21:49:33;7.20;;;5.75;;
59161;SDS011;44942;48.936;8.260;2023-11-21T21:54:33;6.63;;;5.00;;
59161;SDS011;44942;48.936;8.260;2023-11-21T21:59:34;6.67;;;4.57;;
59161;SDS011;44942;48.936;8.260;2023-11-21T22:04:35;6.40;;;4.27;;
59161;SDS011;44942;48.936;8.260;2023-11-21T22:09:35;6.35;;;4.22;;
59161;SDS011;44942;48.936;8.260;2023-11-21T22:14:36;4.60;;;3.67;;
59161;SDS011;44942;48.936;8.260;2023-11-21T22:19:37;4.73;;;3.63;;
59161;SDS011;44942;48.936;8.260;2023-11-21T22:24:37;4.47;;;3.80;;
59161;SDS011;44942;48.936;8.260;2023-11-21T22:29:38;6.75;;;4.15;;
59161;SDS011;44942;48.936;8.260;2023-11-21T22:39:40;4.67;;;3.63;;
59161;SDS011;44942;48.936;8.260;2023-11-21T22:44:41;5.50;;;3.90;;
59161;SDS011;44942;48.936;8.260;2023-11-21T22:49:42;8.05;;;5.60;;
59161;SDS011;44942;48.936;8.260;2023-11-21T22:54:43;5.40;;;4.30;;
59161;SDS011;44942;48.936;8.260;2023-11-21T22:59:43;4.67;;;3.77;;
59161;SDS011;44942;48.936;8.260;2023-11-21T23:04:45;4.80;;;3.90;;
59161;SDS011;44942;48.936;8.260;2023-11-21T23:09:45;5.90;;;3.57;;
59161;SDS011;44942;48.936;8.260;2023-11-21T23:14:46;4.87;;;3.80;;
59161;SDS011;44942;48.936;8.260;2023-11-21T23:19:47;4.50;;;3.40;;
59161;SDS011;44942;48.936;8.260;2023-11-21T23:24:47;5.20;;;3.10;;
59161;SDS011;44942;48.936;8.260;2023-11-21T23:34:53;4.57;;;3.15;;
59161;SDS011;44942;48.936;8.260;2023-11-21T23:39:54;3.70;;;3.00;;
59161;SDS011;44942;48.936;8.260;2023-11-21T23:44:54;3.07;;;2.63;;
59161;SDS011;44942;48.936;8.260;2023-11-21T23:49:55;3.60;;;2.95;;
59161;SDS011;44942;48.936;8.260;2023-11-21T23:54:57;3.60;;;3.00;;
